createdAt,value
2018-12-25T00:00:22.383Z,8.70
2018-12-25T00:03:03.136Z,8.50
2018-12-25T00:05:43.105Z,8.50
2018-12-25T00:08:43.379Z,8.40
2018-12-25T00:11:43.898Z,8.30
2018-12-25T00:14:23.834Z,8.40
2018-12-25T00:17:03.870Z,8.60
2018-12-25T00:19:43.742Z,8.20
2018-12-25T00:22:23.743Z,8.30
2018-12-25T00:25:03.714Z,8.40
2018-12-25T00:27:43.806Z,8.40
2018-12-25T00:30:24.021Z,8.10
2018-12-25T00:33:04.243Z,8.10
2018-12-25T00:35:44.362Z,8.40
2018-12-25T00:38:24.471Z,8.40
2018-12-25T00:41:04.852Z,8.40
2018-12-25T00:43:45.327Z,8.40
2018-12-25T00:46:26.190Z,8.40
2018-12-25T00:49:05.982Z,8.40
2018-12-25T00:51:48.018Z,8.50
2018-12-25T00:54:28.491Z,8.40
2018-12-25T00:57:08.550Z,8.30
2018-12-25T00:59:48.709Z,8.40
2018-12-25T01:02:28.710Z,8.30
2018-12-25T01:05:29.259Z,8.20
2018-12-25T01:08:29.212Z,8.10
2018-12-25T01:11:28.703Z,8.40
2018-12-25T01:14:29.287Z,8.20
2018-12-25T01:17:29.244Z,8.10
2018-12-25T01:20:09.810Z,8.40
2018-12-25T01:22:50.299Z,8.40
2018-12-25T01:25:30.375Z,8.50
2018-12-25T01:28:10.693Z,8.40
2018-12-25T01:30:50.981Z,8.50
2018-12-25T01:33:31.912Z,8.30
2018-12-25T01:36:12.067Z,8.20
2018-12-25T01:38:52.096Z,8.40
2018-12-25T01:41:32.713Z,8.40
2018-12-25T01:44:13.344Z,8.30
2018-12-25T01:46:54.025Z,8.20
2018-12-25T01:49:34.110Z,8.50
2018-12-25T01:52:14.279Z,8.50
2018-12-25T01:54:54.418Z,8.40
2018-12-25T01:57:34.165Z,8.50
2018-12-25T02:03:04.071Z,8.50
2018-12-25T02:05:44.970Z,8.50
2018-12-25T02:08:25.097Z,8.50
2018-12-25T02:11:05.040Z,8.50
2018-12-25T02:13:45.132Z,8.50
2018-12-25T02:16:25.013Z,8.50
2018-12-25T02:19:05.373Z,8.50
2018-12-25T02:21:45.938Z,8.50
2018-12-25T02:24:26.110Z,8.50
2018-12-25T02:27:09.504Z,8.50
2018-12-25T02:29:50.270Z,8.70
2018-12-25T02:32:30.920Z,8.50
2018-12-25T02:35:11.473Z,8.50
2018-12-25T02:37:52.275Z,8.50
2018-12-25T02:40:32.342Z,8.50
2018-12-25T02:43:12.307Z,8.40
2018-12-25T02:45:52.510Z,8.50
2018-12-25T02:48:32.337Z,8.80
2018-12-25T02:51:12.424Z,8.30
2018-12-25T02:53:52.635Z,8.60
2018-12-25T02:56:32.791Z,8.40
2018-12-25T02:59:16.761Z,8.20
2018-12-25T03:01:57.754Z,8.30
2018-12-25T03:04:37.931Z,8.40
2018-12-25T03:07:18.213Z,8.40
2018-12-25T03:09:58.580Z,8.40
2018-12-25T03:12:38.588Z,8.40
2018-12-25T03:15:19.137Z,8.70
2018-12-25T03:17:59.620Z,8.70
2018-12-25T03:20:41.645Z,8.20
2018-12-25T03:23:21.831Z,8.40
2018-12-25T03:26:01.815Z,8.20
2018-12-25T03:28:42.166Z,8.30
2018-12-25T03:31:22.043Z,8.40
2018-12-25T03:34:02.629Z,8.40
2018-12-25T03:36:43.381Z,8.30
2018-12-25T03:39:23.765Z,8.40
2018-12-25T03:42:04.011Z,8.40
2018-12-25T03:44:44.668Z,8.40
2018-12-25T03:47:25.048Z,8.40
2018-12-25T03:50:10.743Z,8.20
2018-12-25T03:52:48.932Z,8.30
2018-12-25T03:55:29.086Z,8.60
2018-12-25T03:58:10.235Z,8.50
2018-12-25T04:00:51.288Z,8.40
2018-12-25T04:03:31.103Z,8.40
2018-12-25T04:06:11.257Z,8.50
2018-12-25T04:08:51.482Z,8.40
2018-12-25T04:11:32.491Z,8.40
2018-12-25T04:14:13.361Z,8.40
2018-12-25T04:16:54.472Z,8.40
2018-12-25T04:19:38.304Z,8.40
2018-12-25T04:22:19.015Z,8.40
2018-12-25T04:24:59.444Z,8.40
2018-12-25T04:27:40.073Z,8.40
2018-12-25T04:30:20.488Z,8.30
2018-12-25T04:33:00.463Z,8.40
2018-12-25T04:35:40.375Z,8.40
2018-12-25T04:38:20.592Z,8.30
2018-12-25T04:41:00.733Z,8.40
2018-12-25T04:43:41.357Z,8.40
2018-12-25T04:46:22.391Z,8.20
2018-12-25T04:49:02.426Z,8.40
2018-12-25T04:51:42.387Z,8.40
2018-12-25T04:54:22.386Z,8.40
2018-12-25T04:57:05.280Z,8.20
2018-12-25T04:59:45.884Z,8.40
2018-12-25T05:02:26.170Z,8.50
2018-12-25T05:05:06.322Z,8.40
2018-12-25T05:07:46.087Z,8.20
2018-12-25T05:10:26.404Z,8.30
2018-12-25T05:13:06.974Z,8.30
2018-12-25T05:15:46.908Z,8.40
2018-12-25T05:18:26.747Z,8.40
2018-12-25T05:21:08.872Z,8.40
2018-12-25T05:23:51.201Z,8.30
2018-12-25T05:26:31.301Z,8.50
2018-12-25T05:29:11.147Z,8.40
2018-12-25T05:31:51.144Z,8.70
2018-12-25T05:34:31.298Z,8.70
2018-12-25T05:37:11.925Z,8.50
2018-12-25T05:39:52.496Z,8.40
2018-12-25T05:42:32.627Z,8.40
2018-12-25T05:45:12.922Z,8.40
2018-12-25T05:47:53.531Z,8.40
2018-12-25T05:50:34.459Z,8.40
2018-12-25T05:53:14.999Z,8.40
2018-12-25T05:55:55.921Z,8.40
2018-12-25T05:58:35.907Z,8.30
2018-12-25T06:01:15.959Z,8.30
2018-12-25T06:03:56.266Z,8.40
2018-12-25T06:06:36.577Z,8.40
2018-12-25T06:09:16.668Z,8.40
2018-12-25T06:11:57.279Z,8.60
2018-12-25T06:14:38.355Z,8.60
2018-12-25T06:17:18.210Z,8.30
2018-12-25T06:19:58.070Z,8.20
2018-12-25T06:22:38.205Z,8.30
2018-12-25T06:25:18.422Z,8.40
2018-12-25T06:27:58.189Z,8.30
2018-12-25T06:30:39.757Z,8.40
2018-12-25T06:33:21.892Z,8.40
2018-12-25T06:36:04.710Z,8.30
2018-12-25T06:38:45.895Z,8.30
2018-12-25T06:41:26.413Z,8.30
2018-12-25T06:44:08.646Z,8.30
2018-12-25T06:46:49.360Z,8.20
2018-12-25T06:49:29.831Z,8.30
2018-12-25T06:52:09.697Z,8.30
2018-12-25T06:54:49.722Z,8.30
2018-12-25T06:57:30.784Z,8.30
2018-12-25T07:00:17.880Z,8.30
2018-12-25T07:03:05.085Z,8.20
2018-12-25T07:05:45.215Z,8.50
2018-12-25T07:08:26.907Z,8.20
2018-12-25T07:11:08.987Z,8.30
2018-12-25T07:13:49.502Z,8.40
2018-12-25T07:16:31.538Z,8.20
2018-12-25T07:19:12.648Z,8.20
2018-12-25T07:21:54.212Z,8.30
2018-12-25T07:33:17.759Z,8.20
2018-12-25T07:35:57.968Z,8.10
2018-12-25T07:38:37.945Z,8.20
2018-12-25T07:47:00.481Z,8.20
2018-12-25T07:49:40.524Z,8.00
2018-12-25T07:52:22.050Z,8.20
2018-12-25T07:55:03.570Z,8.30
2018-12-25T07:57:44.487Z,8.40
2018-12-25T08:00:25.977Z,8.20
2018-12-25T08:03:06.839Z,8.10
2018-12-25T08:05:47.268Z,8.10
2018-12-25T08:11:24.301Z,8.00
2018-12-25T08:14:08.792Z,8.10
2018-12-25T08:16:49.480Z,8.10
2018-12-25T08:19:29.552Z,8.10
2018-12-25T08:24:55.809Z,8.10
2018-12-25T08:27:36.630Z,8.10
2018-12-25T08:33:05.787Z,8.10
2018-12-25T08:35:45.938Z,8.10
2018-12-25T08:38:26.146Z,8.10
2018-12-25T08:41:06.279Z,7.90
2018-12-25T08:43:46.488Z,8.10
2018-12-25T08:46:26.354Z,8.10
2018-12-25T08:49:06.533Z,8.10
2018-12-25T08:51:47.075Z,7.90
2018-12-25T08:54:30.576Z,8.10
2018-12-25T08:57:10.883Z,8.00
2018-12-25T08:59:50.575Z,7.80
2018-12-25T09:02:30.797Z,8.20
2018-12-25T09:05:11.259Z,8.00
2018-12-25T09:07:52.114Z,7.80
2018-12-25T09:10:33.286Z,8.00
2018-12-25T09:13:13.684Z,8.00
2018-12-25T09:15:53.861Z,8.00
2018-12-25T09:18:34.979Z,8.00
2018-12-25T09:21:15.280Z,8.00
2018-12-25T09:23:56.374Z,8.00
2018-12-25T09:26:36.668Z,8.00
2018-12-25T09:29:17.005Z,8.00
2018-12-25T09:31:58.064Z,8.00
2018-12-25T09:34:38.842Z,7.90
2018-12-25T09:37:19.202Z,8.00
2018-12-25T09:39:59.646Z,8.00
2018-12-25T09:42:40.084Z,7.80
2018-12-25T09:45:20.876Z,8.00
2018-12-25T09:48:01.529Z,7.90
2018-12-25T09:50:43.222Z,7.90
2018-12-25T09:53:23.749Z,7.90
2018-12-25T09:56:04.198Z,7.90
2018-12-25T09:58:50.768Z,8.00
2018-12-25T10:01:31.184Z,8.00
2018-12-25T10:04:15.386Z,7.90
2018-12-25T10:06:55.447Z,8.10
2018-12-25T10:09:35.648Z,8.00
2018-12-25T10:12:15.873Z,7.90
2018-12-25T10:14:56.500Z,7.90
2018-12-25T10:17:36.568Z,7.80
2018-12-25T10:20:16.323Z,8.00
2018-12-25T10:23:02.724Z,8.00
2018-12-25T10:28:46.821Z,8.00
2018-12-25T10:31:26.745Z,8.00
2018-12-25T10:37:03.682Z,8.00
2018-12-25T10:39:43.779Z,8.30
2018-12-25T10:42:23.740Z,8.10
2018-12-25T10:45:07.769Z,8.10
2018-12-25T10:47:50.120Z,7.80
2018-12-25T10:50:30.029Z,8.10
2018-12-25T10:53:10.155Z,8.10
2018-12-25T10:55:50.287Z,7.80
2018-12-25T10:58:30.571Z,8.10
2018-12-25T11:01:10.596Z,8.10
2018-12-25T11:03:50.797Z,8.10
2018-12-25T11:06:31.713Z,8.30
2018-12-25T11:09:14.179Z,8.10
2018-12-25T11:11:54.520Z,8.20
2018-12-25T11:14:34.526Z,8.10
2018-12-25T11:17:14.402Z,8.20
2018-12-25T11:19:54.429Z,8.10
2018-12-25T11:22:35.048Z,8.10
2018-12-25T11:25:15.699Z,8.10
2018-12-25T11:27:55.740Z,8.10
2018-12-25T11:30:39.073Z,8.10
2018-12-25T11:33:20.660Z,8.30
2018-12-25T11:36:02.242Z,8.10
2018-12-25T11:38:43.476Z,8.10
2018-12-25T11:41:23.830Z,8.10
2018-12-25T11:44:05.352Z,8.20
2018-12-25T11:46:46.391Z,8.40
2018-12-25T11:49:26.387Z,8.20
2018-12-25T11:55:03.173Z,8.20
2018-12-25T11:57:43.196Z,8.10
2018-12-25T12:00:23.295Z,8.50
2018-12-25T12:03:03.054Z,8.30
2018-12-25T12:08:33.329Z,8.30
2018-12-25T12:11:13.628Z,8.10
2018-12-25T12:13:54.105Z,8.30
2018-12-25T12:16:56.165Z,8.60
2018-12-25T12:19:46.357Z,8.30
2018-12-25T12:22:26.707Z,8.40
2018-12-25T12:25:06.494Z,8.40
2018-12-25T12:27:46.825Z,8.40
2018-12-25T12:30:27.709Z,8.30
2018-12-25T12:33:07.618Z,8.40
2018-12-25T12:35:47.988Z,8.40
2018-12-25T12:38:28.819Z,8.30
2018-12-25T12:41:10.433Z,8.40
2018-12-25T12:43:55.020Z,8.20
2018-12-25T12:46:35.206Z,8.20
2018-12-25T12:49:15.341Z,8.50
2018-12-25T12:51:55.566Z,8.50
2018-12-25T12:54:35.699Z,8.50
2018-12-25T13:00:11.108Z,8.60
2018-12-25T13:02:58.052Z,8.50
2018-12-25T13:05:38.394Z,8.50
2018-12-25T13:08:18.626Z,8.70
2018-12-25T13:10:58.831Z,8.60
2018-12-25T13:13:38.657Z,8.60
2018-12-25T13:16:18.941Z,8.60
2018-12-25T13:18:59.300Z,8.60
2018-12-25T13:21:39.364Z,8.60
2018-12-25T13:24:19.709Z,8.30
2018-12-25T13:27:00.412Z,8.40
2018-12-25T13:29:40.308Z,8.60
2018-12-25T13:32:20.353Z,8.80
2018-12-25T13:35:00.211Z,8.70
2018-12-25T13:37:40.363Z,8.60
2018-12-25T13:40:20.673Z,8.70
2018-12-25T13:43:01.642Z,8.70
2018-12-25T13:45:43.371Z,8.70
2018-12-25T13:48:23.937Z,8.70
2018-12-25T13:51:05.127Z,8.70
2018-12-25T13:53:33.397Z,8.70
2018-12-25T13:56:02.079Z,8.70
2018-12-25T13:58:30.316Z,8.80
2018-12-25T14:00:59.585Z,8.80
2018-12-25T14:03:27.417Z,8.80
2018-12-25T14:06:04.459Z,8.80
2018-12-25T14:08:35.417Z,8.90
2018-12-25T14:11:03.264Z,8.90
2018-12-25T14:13:31.019Z,8.90
2018-12-25T14:15:59.450Z,8.90
2018-12-25T14:18:35.013Z,8.90
2018-12-25T14:21:03.585Z,9.00
2018-12-25T14:23:31.651Z,8.90
2018-12-25T14:25:59.816Z,8.90
2018-12-25T14:28:59.025Z,9.00
2018-12-25T14:31:38.639Z,8.90
2018-12-25T14:34:18.826Z,9.10
2018-12-25T14:36:58.751Z,8.90
2018-12-25T14:39:38.802Z,8.90
2018-12-25T14:42:18.836Z,8.90
2018-12-25T14:44:59.388Z,8.90
2018-12-25T14:47:42.598Z,8.90
2018-12-25T14:50:23.770Z,8.80
2018-12-25T14:53:04.747Z,8.90
2018-12-25T14:55:44.733Z,9.00
2018-12-25T14:58:25.395Z,8.90
2018-12-25T15:01:05.066Z,8.80
2018-12-25T15:03:33.478Z,8.80
2018-12-25T15:06:40.872Z,8.80
2018-12-25T15:09:27.453Z,8.80
2018-12-25T15:12:07.456Z,9.00
2018-12-25T15:14:47.677Z,8.80
2018-12-25T15:17:28.061Z,8.80
2018-12-25T15:20:14.604Z,8.80
2018-12-25T15:22:56.941Z,8.80
2018-12-25T15:25:37.030Z,8.70
2018-12-25T15:28:25.854Z,8.80
2018-12-25T15:31:10.424Z,8.60
2018-12-25T15:33:50.715Z,8.90
2018-12-25T15:36:30.861Z,8.50
2018-12-25T15:39:11.626Z,8.70
2018-12-25T15:41:54.568Z,8.70
2018-12-25T15:44:35.022Z,8.70
2018-12-25T15:47:15.807Z,8.60
2018-12-25T15:49:55.917Z,8.70
2018-12-25T15:52:37.175Z,8.70
2018-12-25T15:55:18.551Z,8.60
2018-12-25T15:57:59.291Z,8.60
2018-12-25T16:00:43.470Z,8.60
2018-12-25T16:03:23.782Z,8.60
2018-12-25T16:06:05.954Z,8.60
2018-12-25T16:08:47.150Z,8.60
2018-12-25T16:11:27.780Z,8.60
2018-12-25T16:14:08.280Z,8.60
2018-12-25T16:16:48.951Z,8.60
2018-12-25T16:19:28.796Z,8.20
2018-12-25T16:22:09.593Z,8.50
2018-12-25T16:24:49.273Z,8.60
2018-12-25T16:27:29.511Z,8.60
2018-12-25T16:30:13.135Z,8.30
2018-12-25T16:32:53.504Z,8.60
2018-12-25T16:35:33.475Z,8.70
2018-12-25T16:38:13.662Z,8.50
2018-12-25T16:40:53.726Z,8.40
2018-12-25T16:43:33.592Z,8.50
2018-12-25T16:46:14.107Z,8.70
2018-12-25T16:48:54.991Z,8.40
2018-12-25T16:51:35.087Z,8.50
2018-12-25T16:54:15.877Z,8.50
2018-12-25T16:56:56.201Z,8.20
2018-12-25T16:59:36.129Z,8.40
2018-12-25T17:02:16.538Z,8.60
2018-12-25T17:04:56.428Z,8.30
2018-12-25T17:07:36.810Z,8.10
2018-12-25T17:10:17.366Z,8.20
2018-12-25T17:12:58.106Z,8.10
2018-12-25T17:15:38.145Z,8.40
2018-12-25T17:18:18.946Z,8.30
2018-12-25T17:20:59.848Z,8.40
2018-12-25T17:23:40.465Z,8.40
2018-12-25T17:26:20.678Z,8.40
2018-12-25T17:29:00.804Z,8.40
2018-12-25T17:31:40.745Z,8.40
2018-12-25T17:34:20.970Z,8.40
2018-12-25T17:37:00.866Z,8.60
2018-12-25T17:39:40.976Z,8.40
2018-12-25T17:42:21.021Z,8.40
2018-12-25T17:45:01.353Z,8.40
2018-12-25T17:47:42.132Z,8.20
2018-12-25T17:50:22.519Z,8.40
2018-12-25T17:53:03.199Z,8.40
2018-12-25T17:55:43.762Z,8.30
2018-12-25T17:58:24.271Z,8.30
2018-12-25T18:01:04.595Z,8.30
2018-12-25T18:03:44.566Z,8.20
2018-12-25T18:06:24.685Z,8.30
2018-12-25T18:09:05.256Z,8.30
2018-12-25T18:11:45.026Z,8.20
2018-12-25T18:14:25.180Z,8.30
2018-12-25T18:17:05.222Z,8.30
2018-12-25T18:19:45.461Z,8.20
2018-12-25T18:22:26.251Z,8.50
2018-12-25T18:27:55.908Z,8.20
2018-12-25T18:30:36.566Z,8.20
2018-12-25T18:33:16.673Z,8.30
2018-12-25T18:35:56.791Z,8.00
2018-12-25T18:38:37.960Z,8.20
2018-12-25T18:41:18.696Z,8.10
2018-12-25T18:43:58.368Z,8.40
2018-12-25T18:46:38.250Z,8.10
2018-12-25T18:49:18.669Z,8.10
2018-12-25T18:51:58.610Z,8.30
2018-12-25T18:54:39.154Z,8.10
2018-12-25T18:57:19.168Z,8.10
2018-12-25T19:02:45.165Z,8.00
2018-12-25T19:05:25.200Z,8.00
2018-12-25T19:08:07.730Z,8.00
2018-12-25T19:10:48.904Z,7.90
2018-12-25T19:13:29.892Z,7.90
2018-12-25T19:16:10.894Z,7.90
2018-12-25T19:18:50.812Z,7.90
2018-12-25T19:21:30.755Z,7.90
2018-12-25T19:24:10.845Z,7.90
2018-12-25T19:26:51.873Z,8.00
2018-12-25T19:29:32.145Z,7.70
2018-12-25T19:32:12.261Z,8.10
2018-12-25T19:34:58.279Z,7.60
2018-12-25T19:37:40.599Z,7.90
2018-12-25T19:43:06.676Z,7.80
2018-12-25T19:45:47.464Z,7.80
2018-12-25T19:48:27.183Z,7.80
2018-12-25T19:51:07.529Z,7.80
2018-12-25T19:53:47.562Z,7.80
2018-12-25T19:56:27.454Z,7.90
2018-12-25T19:59:07.444Z,7.60
2018-12-25T20:01:47.591Z,7.80
2018-12-25T20:04:27.814Z,7.70
2018-12-25T20:07:10.797Z,7.70
2018-12-25T20:09:51.770Z,7.50
2018-12-25T20:12:33.734Z,7.70
2018-12-25T20:15:14.675Z,7.70
2018-12-25T20:17:55.108Z,7.70
2018-12-25T20:20:36.594Z,7.90
2018-12-25T20:23:16.638Z,7.70
2018-12-25T20:25:57.192Z,7.60
2018-12-25T20:28:37.680Z,7.70
2018-12-25T20:31:20.839Z,7.60
2018-12-25T20:34:02.410Z,7.90
2018-12-25T20:36:43.333Z,7.60
2018-12-25T20:39:24.007Z,7.60
2018-12-25T20:42:06.212Z,7.60
2018-12-25T20:44:47.535Z,7.70
2018-12-25T20:47:27.387Z,7.60
2018-12-25T20:50:09.792Z,7.60
2018-12-25T20:52:50.622Z,7.50
2018-12-25T20:55:30.822Z,7.50
2018-12-25T20:58:10.864Z,7.50
2018-12-25T21:00:53.077Z,7.50
2018-12-25T21:03:32.982Z,7.50
2018-12-25T21:06:13.077Z,7.50
2018-12-25T21:08:52.933Z,7.40
2018-12-25T21:11:33.128Z,7.40
2018-12-25T21:14:13.453Z,7.20
2018-12-25T21:16:54.967Z,7.50
2018-12-25T21:19:35.574Z,7.20
2018-12-25T21:22:15.260Z,7.30
2018-12-25T21:24:55.553Z,7.30
2018-12-25T21:27:35.545Z,7.50
2018-12-25T21:30:16.509Z,7.40
2018-12-25T21:32:56.942Z,7.30
2018-12-25T21:35:37.975Z,7.30
2018-12-25T21:38:18.778Z,7.50
2018-12-25T21:40:58.874Z,7.30
2018-12-25T21:43:39.084Z,7.30
2018-12-25T21:46:18.953Z,7.20
2018-12-25T21:48:59.013Z,7.20
2018-12-25T21:51:39.179Z,7.10
2018-12-25T21:54:19.435Z,7.30
2018-12-25T21:56:59.465Z,7.10
2018-12-25T21:59:39.653Z,7.00
2018-12-25T22:02:19.965Z,7.20
2018-12-25T22:05:00.761Z,7.20
2018-12-25T22:07:41.118Z,7.20
2018-12-25T22:13:25.430Z,7.20
2018-12-25T22:16:07.223Z,7.10
2018-12-25T22:18:48.835Z,7.30
2018-12-25T22:21:29.037Z,7.10
2018-12-25T22:24:14.611Z,7.10
2018-12-25T22:27:15.198Z,7.00
2018-12-25T22:32:41.468Z,7.20
2018-12-25T22:35:22.985Z,7.10
2018-12-25T22:38:09.534Z,7.10
2018-12-25T22:41:09.692Z,7.10
2018-12-25T22:43:50.042Z,6.80
2018-12-25T22:46:30.722Z,7.00
2018-12-25T22:49:11.265Z,7.00
2018-12-25T22:51:51.699Z,7.00
2018-12-25T22:54:31.563Z,7.00
2018-12-25T22:57:11.498Z,6.80
2018-12-25T23:03:18.162Z,7.00
2018-12-25T23:05:57.855Z,7.10
2018-12-25T23:08:38.514Z,6.90
2018-12-25T23:11:18.990Z,6.90
2018-12-25T23:13:58.944Z,6.80
2018-12-25T23:16:42.791Z,6.90
2018-12-25T23:19:23.146Z,6.90
2018-12-25T23:22:03.892Z,6.90
2018-12-25T23:24:48.636Z,6.90
2018-12-25T23:27:29.319Z,6.90
2018-12-25T23:32:57.228Z,6.90
2018-12-25T23:35:37.135Z,6.80
2018-12-25T23:38:17.473Z,6.80
2018-12-25T23:40:58.163Z,6.70
2018-12-25T23:43:38.057Z,6.50
2018-12-25T23:46:18.162Z,6.80
2018-12-25T23:48:58.084Z,6.80
2018-12-25T23:51:37.936Z,6.60
2018-12-25T23:54:17.876Z,6.80
2018-12-25T23:56:57.886Z,6.60
2018-12-25T23:59:38.034Z,6.70
